sensor_id;sensor_type;location;lat;lon;timestamp;pressure;altitude;pressure_sealevel;temperature;humidity
5651;BME280;40241;52.684;9.758;2023-02-20T00:00:42;102033.25;;;8.87;64.34
5651;BME280;40241;52.684;9.758;2023-02-20T00:03:08;102025.03;;;8.87;64.22
5651;BME280;40241;52.684;9.758;2023-02-20T00:05:33;102024.16;;;8.90;64.19
5651;BME280;40241;52.684;9.758;2023-02-20T00:07:59;102013.59;;;8.89;64.31
5651;BME280;40241;52.684;9.758;2023-02-20T00:10:24;102009.66;;;8.90;64.30
5651;BME280;40241;52.684;9.758;2023-02-20T00:12:51;102009.19;;;8.91;64.24
5651;BME280;40241;52.684;9.758;2023-02-20T00:15:17;102009.50;;;8.93;64.43
5651;BME280;40241;52.684;9.758;2023-02-20T00:17:44;101995.03;;;8.93;64.30
5651;BME280;40241;52.684;9.758;2023-02-20T00:20:13;102000.38;;;8.96;64.50
5651;BME280;40241;52.684;9.758;2023-02-20T00:22:38;101998.09;;;8.95;64.40
5651;BME280;40241;52.684;9.758;2023-02-20T00:25:04;101993.69;;;8.97;64.51
5651;BME280;40241;52.684;9.758;2023-02-20T00:27:29;101997.50;;;9.00;64.45
5651;BME280;40241;52.684;9.758;2023-02-20T00:29:54;101986.09;;;9.01;64.42
5651;BME280;40241;52.684;9.758;2023-02-20T00:32:20;101996.16;;;9.04;64.40
5651;BME280;40241;52.684;9.758;2023-02-20T00:34:45;101984.44;;;9.04;64.35
5651;BME280;40241;52.684;9.758;2023-02-20T00:37:10;101967.06;;;9.07;64.44
5651;BME280;40241;52.684;9.758;2023-02-20T00:39:36;101968.13;;;9.10;64.39
5651;BME280;40241;52.684;9.758;2023-02-20T00:42:01;101974.41;;;9.10;64.25
5651;BME280;40241;52.684;9.758;2023-02-20T00:44:26;101968.44;;;9.12;64.36
5651;BME280;40241;52.684;9.758;2023-02-20T00:46:51;101962.19;;;9.11;64.31
5651;BME280;40241;52.684;9.758;2023-02-20T00:49:17;101950.78;;;9.13;64.39
5651;BME280;40241;52.684;9.758;2023-02-20T00:51:42;101948.78;;;9.13;64.45
5651;BME280;40241;52.684;9.758;2023-02-20T00:54:07;101942.84;;;9.15;64.34
5651;BME280;40241;52.684;9.758;2023-02-20T00:56:33;101939.34;;;9.14;64.40
5651;BME280;40241;52.684;9.758;2023-02-20T00:58:58;101938.13;;;9.15;64.22
5651;BME280;40241;52.684;9.758;2023-02-20T01:01:23;101931.69;;;9.09;64.16
5651;BME280;40241;52.684;9.758;2023-02-20T01:03:49;101939.78;;;9.13;64.33
5651;BME280;40241;52.684;9.758;2023-02-20T01:06:14;101935.38;;;9.15;64.26
5651;BME280;40241;52.684;9.758;2023-02-20T01:08:40;101933.84;;;9.14;64.23
5651;BME280;40241;52.684;9.758;2023-02-20T01:11:05;101924.41;;;9.15;64.33
5651;BME280;40241;52.684;9.758;2023-02-20T01:13:30;101909.91;;;9.15;64.34
5651;BME280;40241;52.684;9.758;2023-02-20T01:15:56;101898.91;;;9.15;64.29
5651;BME280;40241;52.684;9.758;2023-02-20T01:18:21;101897.69;;;9.16;64.41
5651;BME280;40241;52.684;9.758;2023-02-20T01:20:46;101892.97;;;9.16;64.32
5651;BME280;40241;52.684;9.758;2023-02-20T01:23:12;101884.72;;;9.16;64.19
5651;BME280;40241;52.684;9.758;2023-02-20T01:25:37;101873.28;;;9.18;64.31
5651;BME280;40241;52.684;9.758;2023-02-20T01:28:02;101872.25;;;9.15;64.43
5651;BME280;40241;52.684;9.758;2023-02-20T01:30:28;101881.22;;;9.16;64.41
5651;BME280;40241;52.684;9.758;2023-02-20T01:32:53;101882.75;;;9.17;64.36
5651;BME280;40241;52.684;9.758;2023-02-20T01:35:18;101876.50;;;9.16;64.36
5651;BME280;40241;52.684;9.758;2023-02-20T01:37:44;101880.78;;;9.17;64.43
5651;BME280;40241;52.684;9.758;2023-02-20T01:40:20;101874.53;;;9.17;64.39
5651;BME280;40241;52.684;9.758;2023-02-20T01:42:48;101878.78;;;9.18;64.40
5651;BME280;40241;52.684;9.758;2023-02-20T01:47:46;101866.59;;;9.19;64.44
5651;BME280;40241;52.684;9.758;2023-02-20T01:50:12;101863.06;;;9.18;64.43
5651;BME280;40241;52.684;9.758;2023-02-20T01:52:38;101859.88;;;9.20;64.57
5651;BME280;40241;52.684;9.758;2023-02-20T01:55:08;101857.91;;;9.20;64.48
5651;BME280;40241;52.684;9.758;2023-02-20T01:57:37;101842.19;;;9.21;64.56
5651;BME280;40241;52.684;9.758;2023-02-20T02:00:08;101836.25;;;9.22;64.49
5651;BME280;40241;52.684;9.758;2023-02-20T02:02:36;101824.50;;;9.22;64.48
5651;BME280;40241;52.684;9.758;2023-02-20T02:05:04;101812.00;;;9.21;64.51
5651;BME280;40241;52.684;9.758;2023-02-20T02:07:30;101805.72;;;9.20;64.59
5651;BME280;40241;52.684;9.758;2023-02-20T02:09:59;101803.75;;;9.21;64.63
5651;BME280;40241;52.684;9.758;2023-02-20T02:12:26;101800.22;;;9.20;64.60
5651;BME280;40241;52.684;9.758;2023-02-20T02:14:52;101792.47;;;9.19;64.63
5651;BME280;40241;52.684;9.758;2023-02-20T02:39:27;101760.41;;;9.16;64.70
5651;BME280;40241;52.684;9.758;2023-02-20T02:42:02;101754.91;;;9.16;64.58
5651;BME280;40241;52.684;9.758;2023-02-20T02:47:55;101754.78;;;9.19;64.80
5651;BME280;40241;52.684;9.758;2023-02-20T02:50:30;101757.38;;;9.23;64.74
5651;BME280;40241;52.684;9.758;2023-02-20T02:52:56;101763.19;;;9.25;64.74
5651;BME280;40241;52.684;9.758;2023-02-20T02:55:27;101752.81;;;9.29;64.75
5651;BME280;40241;52.684;9.758;2023-02-20T02:57:53;101752.06;;;9.28;64.78
5651;BME280;40241;52.684;9.758;2023-02-20T03:03:17;101740.91;;;9.32;64.59
5651;BME280;40241;52.684;9.758;2023-02-20T03:06:16;101743.06;;;9.28;64.50
5651;BME280;40241;52.684;9.758;2023-02-20T03:08:53;101741.53;;;9.27;64.64
5651;BME280;40241;52.684;9.758;2023-02-20T03:11:23;101746.69;;;9.25;64.60
5651;BME280;40241;52.684;9.758;2023-02-20T03:14:02;101741.22;;;9.25;64.72
5651;BME280;40241;52.684;9.758;2023-02-20T03:19:40;101707.06;;;9.26;64.63
5651;BME280;40241;52.684;9.758;2023-02-20T03:22:12;101692.56;;;9.25;64.77
5651;BME280;40241;52.684;9.758;2023-02-20T03:24:39;101707.34;;;9.28;64.80
5651;BME280;40241;52.684;9.758;2023-02-20T03:27:43;101699.25;;;9.33;64.70
5651;BME280;40241;52.684;9.758;2023-02-20T03:30:29;101693.34;;;9.35;64.64
5651;BME280;40241;52.684;9.758;2023-02-20T03:33:12;101687.50;;;9.33;64.68
5651;BME280;40241;52.684;9.758;2023-02-20T03:36:00;101676.38;;;9.36;64.69
5651;BME280;40241;52.684;9.758;2023-02-20T03:38:53;101661.41;;;9.37;64.70
5651;BME280;40241;52.684;9.758;2023-02-20T03:41:40;101647.25;;;9.39;64.66
5651;BME280;40241;52.684;9.758;2023-02-20T03:44:27;101648.75;;;9.40;64.72
5651;BME280;40241;52.684;9.758;2023-02-20T03:46:55;101640.50;;;9.40;64.72
5651;BME280;40241;52.684;9.758;2023-02-20T03:49:28;101638.38;;;9.44;64.58
5651;BME280;40241;52.684;9.758;2023-02-20T03:51:55;101645.25;;;9.39;64.54
5651;BME280;40241;52.684;9.758;2023-02-20T03:54:24;101679.88;;;9.46;64.73
5651;BME280;40241;52.684;9.758;2023-02-20T03:56:55;101687.19;;;9.49;64.66
5651;BME280;40241;52.684;9.758;2023-02-20T03:59:26;101680.50;;;9.50;64.77
5651;BME280;40241;52.684;9.758;2023-02-20T04:01:59;101690.56;;;9.53;64.60
5651;BME280;40241;52.684;9.758;2023-02-20T04:04:30;101681.88;;;9.54;64.57
5651;BME280;40241;52.684;9.758;2023-02-20T04:06:58;101681.09;;;9.54;64.49
5651;BME280;40241;52.684;9.758;2023-02-20T04:09:28;101703.06;;;9.54;64.64
5651;BME280;40241;52.684;9.758;2023-02-20T04:12:09;101684.75;;;9.60;64.56
5651;BME280;40241;52.684;9.758;2023-02-20T04:14:36;101643.84;;;9.62;64.57
5651;BME280;40241;52.684;9.758;2023-02-20T04:17:07;101627.06;;;9.60;64.59
5651;BME280;40241;52.684;9.758;2023-02-20T04:19:34;101629.03;;;9.59;64.61
5651;BME280;40241;52.684;9.758;2023-02-20T04:22:05;101622.63;;;9.62;64.54
5651;BME280;40241;52.684;9.758;2023-02-20T04:24:42;101627.81;;;9.60;64.60
5651;BME280;40241;52.684;9.758;2023-02-20T04:27:09;101613.16;;;9.63;64.69
5651;BME280;40241;52.684;9.758;2023-02-20T04:29:35;101614.38;;;9.62;64.58
5651;BME280;40241;52.684;9.758;2023-02-20T04:32:00;101600.47;;;9.66;64.64
5651;BME280;40241;52.684;9.758;2023-02-20T04:34:25;101624.91;;;9.64;64.58
5651;BME280;40241;52.684;9.758;2023-02-20T04:37:07;101636.19;;;9.66;64.59
5651;BME280;40241;52.684;9.758;2023-02-20T04:39:33;101642.47;;;9.66;64.70
5651;BME280;40241;52.684;9.758;2023-02-20T04:41:58;101633.44;;;9.66;64.66
5651;BME280;40241;52.684;9.758;2023-02-20T04:44:23;101622.47;;;9.66;64.46
5651;BME280;40241;52.684;9.758;2023-02-20T04:47:01;101631.94;;;9.65;64.58
5651;BME280;40241;52.684;9.758;2023-02-20T04:49:27;101645.38;;;9.63;64.71
5651;BME280;40241;52.684;9.758;2023-02-20T04:51:52;101629.63;;;9.63;64.68
5651;BME280;40241;52.684;9.758;2023-02-20T04:54:17;101628.91;;;9.63;64.62
5651;BME280;40241;52.684;9.758;2023-02-20T04:56:43;101620.66;;;9.63;64.80
5651;BME280;40241;52.684;9.758;2023-02-20T04:59:09;101618.19;;;9.65;64.72
5651;BME280;40241;52.684;9.758;2023-02-20T05:01:34;101616.97;;;9.66;64.71
5651;BME280;40241;52.684;9.758;2023-02-20T05:03:59;101619.72;;;9.66;64.67
5651;BME280;40241;52.684;9.758;2023-02-20T05:06:25;101625.97;;;9.66;64.76
5651;BME280;40241;52.684;9.758;2023-02-20T05:08:50;101613.91;;;9.64;64.76
5651;BME280;40241;52.684;9.758;2023-02-20T05:11:16;101618.50;;;9.67;64.69
5651;BME280;40241;52.684;9.758;2023-02-20T05:13:41;101603.53;;;9.68;64.76
5651;BME280;40241;52.684;9.758;2023-02-20T05:16:06;101604.47;;;9.65;64.78
5651;BME280;40241;52.684;9.758;2023-02-20T05:18:32;101594.97;;;9.66;64.80
5651;BME280;40241;52.684;9.758;2023-02-20T05:20:58;101591.03;;;9.67;64.86
5651;BME280;40241;52.684;9.758;2023-02-20T05:23:41;101596.22;;;9.65;64.92
5651;BME280;40241;52.684;9.758;2023-02-20T05:26:08;101580.94;;;9.64;64.96
5651;BME280;40241;52.684;9.758;2023-02-20T05:28:34;101573.78;;;9.66;65.04
5651;BME280;40241;52.684;9.758;2023-02-20T05:31:00;101578.78;;;9.68;64.94
5651;BME280;40241;52.684;9.758;2023-02-20T05:33:25;101565.06;;;9.68;65.05
5651;BME280;40241;52.684;9.758;2023-02-20T05:35:50;101565.06;;;9.68;64.97
5651;BME280;40241;52.684;9.758;2023-02-20T05:38:17;101562.59;;;9.70;64.95
5651;BME280;40241;52.684;9.758;2023-02-20T05:40:42;101551.63;;;9.70;65.00
5651;BME280;40241;52.684;9.758;2023-02-20T05:43:07;101542.16;;;9.71;65.14
5651;BME280;40241;52.684;9.758;2023-02-20T05:45:33;101535.41;;;9.72;65.11
5651;BME280;40241;52.684;9.758;2023-02-20T05:47:58;101522.94;;;9.71;65.18
5651;BME280;40241;52.684;9.758;2023-02-20T05:50:23;101529.47;;;9.73;65.07
5651;BME280;40241;52.684;9.758;2023-02-20T05:52:49;101535.75;;;9.74;65.12
5651;BME280;40241;52.684;9.758;2023-02-20T05:55:14;101538.50;;;9.74;65.05
5651;BME280;40241;52.684;9.758;2023-02-20T05:57:39;101536.97;;;9.73;65.23
5651;BME280;40241;52.684;9.758;2023-02-20T06:00:05;101542.75;;;9.75;65.20
5651;BME280;40241;52.684;9.758;2023-02-20T06:02:31;101534.31;;;9.78;65.12
5651;BME280;40241;52.684;9.758;2023-02-20T06:04:58;101540.16;;;9.80;65.13
5651;BME280;40241;52.684;9.758;2023-02-20T06:07:23;101547.91;;;9.82;65.07
5651;BME280;40241;52.684;9.758;2023-02-20T06:09:49;101525.94;;;9.82;65.15
5651;BME280;40241;52.684;9.758;2023-02-20T06:12:15;101568.22;;;9.85;65.03
5651;BME280;40241;52.684;9.758;2023-02-20T06:14:40;101537.50;;;9.86;65.06
5651;BME280;40241;52.684;9.758;2023-02-20T06:17:05;101530.47;;;9.85;65.09
5651;BME280;40241;52.684;9.758;2023-02-20T06:19:30;101534.75;;;9.86;65.11
5651;BME280;40241;52.684;9.758;2023-02-20T06:21:56;101519.03;;;9.87;65.13
5651;BME280;40241;52.684;9.758;2023-02-20T06:24:24;101528.78;;;9.88;65.03
5651;BME280;40241;52.684;9.758;2023-02-20T06:26:50;101520.09;;;9.89;65.17
5651;BME280;40241;52.684;9.758;2023-02-20T06:29:16;101522.06;;;9.89;65.11
5651;BME280;40241;52.684;9.758;2023-02-20T06:31:42;101519.63;;;9.91;65.11
5651;BME280;40241;52.684;9.758;2023-02-20T06:34:08;101524.34;;;9.90;64.90
5651;BME280;40241;52.684;9.758;2023-02-20T06:36:37;101507.56;;;9.88;65.01
5651;BME280;40241;52.684;9.758;2023-02-20T06:39:04;101513.84;;;9.89;65.21
5651;BME280;40241;52.684;9.758;2023-02-20T06:41:29;101514.59;;;9.89;65.02
5651;BME280;40241;52.684;9.758;2023-02-20T06:43:55;101518.84;;;9.90;65.17
5651;BME280;40241;52.684;9.758;2023-02-20T06:46:21;101512.16;;;9.91;65.21
5651;BME280;40241;52.684;9.758;2023-02-20T06:48:54;101508.16;;;9.92;65.04
5651;BME280;40241;52.684;9.758;2023-02-20T06:51:22;101493.19;;;9.93;65.04
5651;BME280;40241;52.684;9.758;2023-02-20T06:53:48;101508.16;;;9.92;65.07
5651;BME280;40241;52.684;9.758;2023-02-20T06:56:19;101500.97;;;9.95;65.00
5651;BME280;40241;52.684;9.758;2023-02-20T06:58:46;101506.47;;;9.95;65.02
5651;BME280;40241;52.684;9.758;2023-02-20T07:01:12;101509.97;;;9.95;64.96
5651;BME280;40241;52.684;9.758;2023-02-20T07:03:38;101518.22;;;9.95;64.99
5651;BME280;40241;52.684;9.758;2023-02-20T07:06:03;101505.69;;;9.94;64.99
5651;BME280;40241;52.684;9.758;2023-02-20T07:08:29;101515.19;;;9.93;65.06
5651;BME280;40241;52.684;9.758;2023-02-20T07:10:54;101502.78;;;9.98;65.04
5651;BME280;40241;52.684;9.758;2023-02-20T07:13:20;101496.81;;;9.99;64.94
5651;BME280;40241;52.684;9.758;2023-02-20T07:15:46;101500.50;;;9.96;65.01
5651;BME280;40241;52.684;9.758;2023-02-20T07:18:12;101504.78;;;9.97;64.93
5651;BME280;40241;52.684;9.758;2023-02-20T07:20:37;101514.06;;;10.00;65.03
5651;BME280;40241;52.684;9.758;2023-02-20T07:23:02;101514.84;;;10.00;64.93
5651;BME280;40241;52.684;9.758;2023-02-20T07:25:28;101519.09;;;10.01;64.92
5651;BME280;40241;52.684;9.758;2023-02-20T07:27:53;101511.16;;;10.03;64.91
5651;BME280;40241;52.684;9.758;2023-02-20T07:30:19;101520.75;;;10.08;64.96
5651;BME280;40241;52.684;9.758;2023-02-20T07:32:44;101520.59;;;10.11;64.90
5651;BME280;40241;52.684;9.758;2023-02-20T07:35:09;101535.41;;;10.14;64.87
5651;BME280;40241;52.684;9.758;2023-02-20T07:37:35;101542.44;;;10.15;64.83
5651;BME280;40241;52.684;9.758;2023-02-20T07:40:00;101541.47;;;10.18;64.67
5651;BME280;40241;52.684;9.758;2023-02-20T07:42:25;101533.53;;;10.20;64.57
5651;BME280;40241;52.684;9.758;2023-02-20T07:44:51;101528.34;;;10.22;64.60
5651;BME280;40241;52.684;9.758;2023-02-20T07:47:16;101531.09;;;10.22;64.77
5651;BME280;40241;52.684;9.758;2023-02-20T07:49:42;101523.88;;;10.24;64.62
5651;BME280;40241;52.684;9.758;2023-02-20T07:52:07;101513.34;;;10.23;64.55
5651;BME280;40241;52.684;9.758;2023-02-20T07:54:33;101505.84;;;10.23;64.62
5651;BME280;40241;52.684;9.758;2023-02-20T07:56:58;101496.69;;;10.26;64.57
5651;BME280;40241;52.684;9.758;2023-02-20T07:59:23;101506.91;;;10.26;64.49
5651;BME280;40241;52.684;9.758;2023-02-20T08:01:48;101496.97;;;10.28;64.65
5651;BME280;40241;52.684;9.758;2023-02-20T08:04:14;101492.97;;;10.29;64.41
5651;BME280;40241;52.684;9.758;2023-02-20T08:06:40;101497.53;;;10.32;64.58
5651;BME280;40241;52.684;9.758;2023-02-20T08:09:05;101514.06;;;10.32;64.46
5651;BME280;40241;52.684;9.758;2023-02-20T08:11:35;101509.47;;;10.29;64.28
5651;BME280;40241;52.684;9.758;2023-02-20T08:14:02;101489.94;;;10.27;64.34
5651;BME280;40241;52.684;9.758;2023-02-20T08:16:29;101485.69;;;10.26;64.41
5651;BME280;40241;52.684;9.758;2023-02-20T08:18:54;101492.09;;;10.23;64.58
5651;BME280;40241;52.684;9.758;2023-02-20T08:21:20;101502.19;;;10.26;64.56
5651;BME280;40241;52.684;9.758;2023-02-20T08:23:45;101509.03;;;10.31;64.45
5651;BME280;40241;52.684;9.758;2023-02-20T08:26:11;101504.75;;;10.30;64.38
5651;BME280;40241;52.684;9.758;2023-02-20T08:28:37;101501.50;;;10.31;64.39
5651;BME280;40241;52.684;9.758;2023-02-20T08:31:02;101490.50;;;10.31;64.33
5651;BME280;40241;52.684;9.758;2023-02-20T08:33:28;101500.78;;;10.31;64.56
5651;BME280;40241;52.684;9.758;2023-02-20T08:35:53;101499.06;;;10.33;64.41
5651;BME280;40241;52.684;9.758;2023-02-20T08:38:33;101509.75;;;10.31;64.39
5651;BME280;40241;52.684;9.758;2023-02-20T08:41:06;101511.78;;;10.31;64.40
5651;BME280;40241;52.684;9.758;2023-02-20T08:43:35;101494.50;;;10.30;64.51
5651;BME280;40241;52.684;9.758;2023-02-20T08:46:01;101503.06;;;10.32;64.41
5651;BME280;40241;52.684;9.758;2023-02-20T08:48:27;101477.53;;;10.32;64.48
5651;BME280;40241;52.684;9.758;2023-02-20T08:50:53;101483.78;;;10.32;64.53
5651;BME280;40241;52.684;9.758;2023-02-20T08:53:18;101468.50;;;10.31;64.56
5651;BME280;40241;52.684;9.758;2023-02-20T08:55:44;101470.81;;;10.33;64.48
5651;BME280;40241;52.684;9.758;2023-02-20T08:58:09;101467.28;;;10.32;64.58
5651;BME280;40241;52.684;9.758;2023-02-20T09:00:35;101465.88;;;10.37;64.54
5651;BME280;40241;52.684;9.758;2023-02-20T09:03:00;101472.59;;;10.36;64.68
5651;BME280;40241;52.684;9.758;2023-02-20T09:05:26;101471.84;;;10.35;64.59
5651;BME280;40241;52.684;9.758;2023-02-20T09:07:52;101464.63;;;10.38;64.56
5651;BME280;40241;52.684;9.758;2023-02-20T09:10:18;101461.88;;;10.38;64.59
5651;BME280;40241;52.684;9.758;2023-02-20T09:12:44;101467.97;;;10.42;64.56
5651;BME280;40241;52.684;9.758;2023-02-20T09:15:10;101458.00;;;10.44;64.52
5651;BME280;40241;52.684;9.758;2023-02-20T09:17:36;101476.53;;;10.44;64.52
5651;BME280;40241;52.684;9.758;2023-02-20T09:20:01;101452.06;;;10.46;64.70
5651;BME280;40241;52.684;9.758;2023-02-20T09:22:26;101442.06;;;10.48;64.46
5651;BME280;40241;52.684;9.758;2023-02-20T09:24:52;101452.78;;;10.46;64.51
5651;BME280;40241;52.684;9.758;2023-02-20T09:27:19;101457.56;;;10.46;64.53
5651;BME280;40241;52.684;9.758;2023-02-20T09:29:45;101456.25;;;10.56;64.64
5651;BME280;40241;52.684;9.758;2023-02-20T09:32:11;101459.47;;;10.54;64.50
5651;BME280;40241;52.684;9.758;2023-02-20T09:34:36;101441.25;;;10.57;64.49
5651;BME280;40241;52.684;9.758;2023-02-20T09:37:02;101433.00;;;10.57;64.45
5651;BME280;40241;52.684;9.758;2023-02-20T09:39:27;101415.38;;;10.64;64.57
5651;BME280;40241;52.684;9.758;2023-02-20T09:42:15;101427.38;;;10.66;64.22
5651;BME280;40241;52.684;9.758;2023-02-20T09:45:11;101416.97;;;10.70;64.42
5651;BME280;40241;52.684;9.758;2023-02-20T09:47:52;101417.72;;;10.71;64.33
5651;BME280;40241;52.684;9.758;2023-02-20T09:50:32;101416.00;;;10.73;64.43
5651;BME280;40241;52.684;9.758;2023-02-20T09:53:06;101411.56;;;10.76;64.46
5651;BME280;40241;52.684;9.758;2023-02-20T09:55:38;101424.84;;;10.77;64.46
5651;BME280;40241;52.684;9.758;2023-02-20T09:58:05;101417.16;;;10.81;64.41
5651;BME280;40241;52.684;9.758;2023-02-20T10:00:33;101419.44;;;10.83;64.61
5651;BME280;40241;52.684;9.758;2023-02-20T10:03:14;101430.25;;;10.86;64.22
5651;BME280;40241;52.684;9.758;2023-02-20T10:05:42;101416.50;;;10.86;64.47
5651;BME280;40241;52.684;9.758;2023-02-20T10:08:09;101406.53;;;10.89;64.62
5651;BME280;40241;52.684;9.758;2023-02-20T10:10:35;101407.47;;;10.86;64.64
5651;BME280;40241;52.684;9.758;2023-02-20T10:21:11;101407.84;;;10.93;64.71
5651;BME280;40241;52.684;9.758;2023-02-20T10:23:57;101398.34;;;10.94;64.99
5651;BME280;40241;52.684;9.758;2023-02-20T10:26:26;101393.88;;;10.97;64.88
5651;BME280;40241;52.684;9.758;2023-02-20T10:28:57;101409.47;;;11.00;64.89
5651;BME280;40241;52.684;9.758;2023-02-20T10:31:32;101401.47;;;11.02;64.91
5651;BME280;40241;52.684;9.758;2023-02-20T10:34:14;101403.28;;;11.05;65.18
5651;BME280;40241;52.684;9.758;2023-02-20T10:36:45;101390.75;;;11.04;65.03
5651;BME280;40241;52.684;9.758;2023-02-20T10:39:15;101408.03;;;11.04;64.97
5651;BME280;40241;52.684;9.758;2023-02-20T10:44:28;101400.81;;;11.07;65.07
5651;BME280;40241;52.684;9.758;2023-02-20T10:49:29;101402.59;;;11.10;65.08
5651;BME280;40241;52.684;9.758;2023-02-20T10:51:59;101403.66;;;11.12;65.34
5651;BME280;40241;52.684;9.758;2023-02-20T10:54:42;101400.13;;;11.12;65.40
5651;BME280;40241;52.684;9.758;2023-02-20T10:57:24;101400.13;;;11.12;65.62
5651;BME280;40241;52.684;9.758;2023-02-20T11:02:29;101402.41;;;11.13;65.38
5651;BME280;40241;52.684;9.758;2023-02-20T11:05:02;101392.44;;;11.16;65.43
5651;BME280;40241;52.684;9.758;2023-02-20T11:07:27;101395.75;;;11.20;65.44
5651;BME280;40241;52.684;9.758;2023-02-20T11:09:53;101388.22;;;11.20;65.46
5651;BME280;40241;52.684;9.758;2023-02-20T11:12:26;101389.00;;;11.21;65.51
5651;BME280;40241;52.684;9.758;2023-02-20T11:14:55;101386.53;;;11.23;65.67
5651;BME280;40241;52.684;9.758;2023-02-20T11:17:24;101380.06;;;11.26;65.67
5651;BME280;40241;52.684;9.758;2023-02-20T11:19:56;101373.03;;;11.25;65.63
5651;BME280;40241;52.684;9.758;2023-02-20T11:22:46;101363.25;;;11.24;66.01
5651;BME280;40241;52.684;9.758;2023-02-20T11:27:40;101349.50;;;11.24;65.92
5651;BME280;40241;52.684;9.758;2023-02-20T11:30:25;101339.41;;;11.21;66.30
5651;BME280;40241;52.684;9.758;2023-02-20T11:35:27;101346.25;;;11.25;66.18
5651;BME280;40241;52.684;9.758;2023-02-20T11:41:00;101361.63;;;11.32;66.38
5651;BME280;40241;52.684;9.758;2023-02-20T11:43:36;101350.59;;;11.32;66.23
5651;BME280;40241;52.684;9.758;2023-02-20T11:46:18;101344.13;;;11.35;66.40
5651;BME280;40241;52.684;9.758;2023-02-20T11:49:02;101344.91;;;11.36;66.59
5651;BME280;40241;52.684;9.758;2023-02-20T11:51:31;101340.13;;;11.36;66.26
5651;BME280;40241;52.684;9.758;2023-02-20T11:54:16;101329.09;;;11.36;66.61
5651;BME280;40241;52.684;9.758;2023-02-20T11:59:36;101319.34;;;11.35;66.55
5651;BME280;40241;52.684;9.758;2023-02-20T12:04:39;101365.97;;;11.39;66.57
5651;BME280;40241;52.684;9.758;2023-02-20T12:09:52;101353.22;;;11.41;66.51
5651;BME280;40241;52.684;9.758;2023-02-20T12:12:20;101366.78;;;11.45;66.49
5651;BME280;40241;52.684;9.758;2023-02-20T12:14:49;101362.31;;;11.47;66.60
5651;BME280;40241;52.684;9.758;2023-02-20T12:17:47;101336.22;;;11.43;67.18
5651;BME280;40241;52.684;9.758;2023-02-20T12:20:19;101365.28;;;11.44;66.80
5651;BME280;40241;52.684;9.758;2023-02-20T12:25:41;101347.78;;;11.47;67.30
5651;BME280;40241;52.684;9.758;2023-02-20T12:42:50;101341.31;;;11.50;67.41
5651;BME280;40241;52.684;9.758;2023-02-20T12:50:59;101339.19;;;11.59;67.95
5651;BME280;40241;52.684;9.758;2023-02-20T12:53:32;101337.94;;;11.60;67.39
5651;BME280;40241;52.684;9.758;2023-02-20T12:56:19;101334.03;;;11.67;67.97
5651;BME280;40241;52.684;9.758;2023-02-20T12:59:06;101335.00;;;11.64;67.79
5651;BME280;40241;52.684;9.758;2023-02-20T13:01:33;101330.72;;;11.63;67.44
5651;BME280;40241;52.684;9.758;2023-02-20T13:04:10;101323.47;;;11.65;67.63
5651;BME280;40241;52.684;9.758;2023-02-20T13:07:16;101338.47;;;11.64;68.32
5651;BME280;40241;52.684;9.758;2023-02-20T13:09:57;101336.78;;;11.67;67.95
5651;BME280;40241;52.684;9.758;2023-02-20T13:12:25;101333.34;;;11.72;67.47
5651;BME280;40241;52.684;9.758;2023-02-20T13:18:23;101317.84;;;11.74;67.78
5651;BME280;40241;52.684;9.758;2023-02-20T13:20:55;101317.84;;;11.74;67.39
5651;BME280;40241;52.684;9.758;2023-02-20T13:25:47;101303.09;;;11.77;67.42
5651;BME280;40241;52.684;9.758;2023-02-20T13:28:40;101297.56;;;11.77;67.90
5651;BME280;40241;52.684;9.758;2023-02-20T13:31:21;101305.38;;;11.79;67.41
5651;BME280;40241;52.684;9.758;2023-02-20T13:37:45;101281.09;;;11.83;67.70
5651;BME280;40241;52.684;9.758;2023-02-20T13:42:02;101306.47;;;11.87;67.67
5651;BME280;40241;52.684;9.758;2023-02-20T13:44:42;101290.69;;;11.87;67.87
5651;BME280;40241;52.684;9.758;2023-02-20T13:55:13;101280.88;;;11.86;68.42
5651;BME280;40241;52.684;9.758;2023-02-20T13:57:54;101283.63;;;11.86;68.02
5651;BME280;40241;52.684;9.758;2023-02-20T14:00:24;101279.84;;;11.84;68.06
5651;BME280;40241;52.684;9.758;2023-02-20T14:02:51;101284.63;;;11.83;68.06
5651;BME280;40241;52.684;9.758;2023-02-20T14:05:20;101280.59;;;11.84;67.92
5651;BME280;40241;52.684;9.758;2023-02-20T14:07:47;101272.34;;;11.84;68.21
5651;BME280;40241;52.684;9.758;2023-02-20T14:12:44;101290.13;;;11.83;68.20
5651;BME280;40241;52.684;9.758;2023-02-20T14:15:09;101270.56;;;11.81;68.23
5651;BME280;40241;52.684;9.758;2023-02-20T14:17:35;101281.09;;;11.83;68.19
5651;BME280;40241;52.684;9.758;2023-02-20T14:20:05;101279.13;;;11.83;68.22
5651;BME280;40241;52.684;9.758;2023-02-20T14:22:33;101277.59;;;11.82;68.38
5651;BME280;40241;52.684;9.758;2023-02-20T14:27:35;101273.31;;;11.81;68.52
5651;BME280;40241;52.684;9.758;2023-02-20T14:32:42;101279.38;;;11.85;68.40
5651;BME280;40241;52.684;9.758;2023-02-20T14:35:35;101279.56;;;11.82;68.58
5651;BME280;40241;52.684;9.758;2023-02-20T14:38:15;101282.59;;;11.84;68.42
5651;BME280;40241;52.684;9.758;2023-02-20T14:40:43;101282.84;;;11.80;68.34
5651;BME280;40241;52.684;9.758;2023-02-20T14:43:18;101292.63;;;11.81;68.88
5651;BME280;40241;52.684;9.758;2023-02-20T14:45:46;101296.63;;;11.80;68.54
5651;BME280;40241;52.684;9.758;2023-02-20T14:48:35;101288.34;;;11.80;69.26
5651;BME280;40241;52.684;9.758;2023-02-20T14:51:20;101293.84;;;11.80;68.98
5651;BME280;40241;52.684;9.758;2023-02-20T14:53:56;101299.59;;;11.77;69.39
5651;BME280;40241;52.684;9.758;2023-02-20T14:56:22;101324.88;;;11.75;68.71
5651;BME280;40241;52.684;9.758;2023-02-20T14:58:48;101294.06;;;11.77;68.66
5651;BME280;40241;52.684;9.758;2023-02-20T15:04:17;101288.28;;;11.75;69.59
5651;BME280;40241;52.684;9.758;2023-02-20T15:06:45;101293.81;;;11.75;68.88
5651;BME280;40241;52.684;9.758;2023-02-20T15:09:11;101296.28;;;11.73;69.13
5651;BME280;40241;52.684;9.758;2023-02-20T15:11:54;101287.53;;;11.74;69.40
5651;BME280;40241;52.684;9.758;2023-02-20T15:14:26;101293.81;;;11.75;69.25
5651;BME280;40241;52.684;9.758;2023-02-20T15:17:19;101300.81;;;11.76;69.98